sensor_id;sensor_type;location;lat;lon;timestamp;P1;durP1;ratioP1;P2;durP2;ratioP2
9771;SDS011;4925;52.588;13.370;2023-02-15T00:01:06;25.00;;;16.33;;
9771;SDS011;4925;52.588;13.370;2023-02-15T00:03:32;27.23;;;17.47;;
9771;SDS011;4925;52.588;13.370;2023-02-15T00:05:58;24.40;;;16.37;;
9771;SDS011;4925;52.588;13.370;2023-02-15T00:08:24;30.67;;;16.73;;
9771;SDS011;4925;52.588;13.370;2023-02-15T00:10:49;26.83;;;16.17;;
9771;SDS011;4925;52.588;13.370;2023-02-15T00:13:15;25.30;;;17.00;;
9771;SDS011;4925;52.588;13.370;2023-02-15T00:15:41;26.27;;;16.70;;
9771;SDS011;4925;52.588;13.370;2023-02-15T00:18:06;25.23;;;17.17;;
9771;SDS011;4925;52.588;13.370;2023-02-15T00:20:32;26.97;;;16.83;;
9771;SDS011;4925;52.588;13.370;2023-02-15T00:22:58;25.97;;;16.87;;
9771;SDS011;4925;52.588;13.370;2023-02-15T00:25:24;27.33;;;17.80;;
9771;SDS011;4925;52.588;13.370;2023-02-15T00:27:50;25.73;;;15.83;;
9771;SDS011;4925;52.588;13.370;2023-02-15T00:30:16;25.17;;;16.83;;
9771;SDS011;4925;52.588;13.370;2023-02-15T00:32:41;26.40;;;16.90;;
9771;SDS011;4925;52.588;13.370;2023-02-15T00:35:07;24.73;;;16.37;;
9771;SDS011;4925;52.588;13.370;2023-02-15T00:37:34;26.00;;;16.87;;
9771;SDS011;4925;52.588;13.370;2023-02-15T00:40:00;24.73;;;16.40;;
9771;SDS011;4925;52.588;13.370;2023-02-15T00:42:26;23.70;;;16.43;;
9771;SDS011;4925;52.588;13.370;2023-02-15T00:44:51;27.50;;;17.70;;
9771;SDS011;4925;52.588;13.370;2023-02-15T00:47:17;32.30;;;16.70;;
9771;SDS011;4925;52.588;13.370;2023-02-15T00:49:43;23.60;;;16.67;;
9771;SDS011;4925;52.588;13.370;2023-02-15T00:52:08;23.07;;;16.67;;
9771;SDS011;4925;52.588;13.370;2023-02-15T00:54:34;21.57;;;15.77;;
9771;SDS011;4925;52.588;13.370;2023-02-15T00:57:00;25.20;;;16.00;;
9771;SDS011;4925;52.588;13.370;2023-02-15T00:59:26;28.93;;;17.83;;
9771;SDS011;4925;52.588;13.370;2023-02-15T01:01:51;26.67;;;16.47;;
9771;SDS011;4925;52.588;13.370;2023-02-15T01:04:17;23.10;;;15.93;;
9771;SDS011;4925;52.588;13.370;2023-02-15T01:06:43;24.53;;;16.13;;
9771;SDS011;4925;52.588;13.370;2023-02-15T01:09:08;23.97;;;16.30;;
9771;SDS011;4925;52.588;13.370;2023-02-15T01:11:34;27.77;;;16.80;;
9771;SDS011;4925;52.588;13.370;2023-02-15T01:14:00;27.30;;;16.13;;
9771;SDS011;4925;52.588;13.370;2023-02-15T01:16:26;22.20;;;15.70;;
9771;SDS011;4925;52.588;13.370;2023-02-15T01:18:53;25.33;;;16.20;;
9771;SDS011;4925;52.588;13.370;2023-02-15T01:21:22;26.43;;;16.67;;
9771;SDS011;4925;52.588;13.370;2023-02-15T01:23:49;27.53;;;16.57;;
9771;SDS011;4925;52.588;13.370;2023-02-15T01:26:15;26.10;;;16.13;;
9771;SDS011;4925;52.588;13.370;2023-02-15T01:28:41;26.33;;;18.07;;
9771;SDS011;4925;52.588;13.370;2023-02-15T01:31:14;26.70;;;17.67;;
9771;SDS011;4925;52.588;13.370;2023-02-15T01:33:41;23.47;;;16.63;;
9771;SDS011;4925;52.588;13.370;2023-02-15T01:36:07;27.07;;;17.80;;
9771;SDS011;4925;52.588;13.370;2023-02-15T01:38:34;25.33;;;16.57;;
9771;SDS011;4925;52.588;13.370;2023-02-15T01:41:00;29.20;;;18.80;;
9771;SDS011;4925;52.588;13.370;2023-02-15T01:43:45;24.10;;;16.33;;
9771;SDS011;4925;52.588;13.370;2023-02-15T01:46:13;24.87;;;16.20;;
9771;SDS011;4925;52.588;13.370;2023-02-15T01:48:43;28.07;;;17.83;;
9771;SDS011;4925;52.588;13.370;2023-02-15T01:51:13;25.83;;;17.63;;
9771;SDS011;4925;52.588;13.370;2023-02-15T01:54:01;24.87;;;16.77;;
9771;SDS011;4925;52.588;13.370;2023-02-15T01:56:35;26.90;;;16.87;;
9771;SDS011;4925;52.588;13.370;2023-02-15T01:59:05;23.97;;;15.90;;
9771;SDS011;4925;52.588;13.370;2023-02-15T02:01:34;28.70;;;18.17;;
9771;SDS011;4925;52.588;13.370;2023-02-15T02:04:17;28.47;;;17.60;;
9771;SDS011;4925;52.588;13.370;2023-02-15T02:06:59;26.77;;;17.57;;
9771;SDS011;4925;52.588;13.370;2023-02-15T02:09:25;24.63;;;16.27;;
9771;SDS011;4925;52.588;13.370;2023-02-15T02:11:51;24.40;;;17.03;;
9771;SDS011;4925;52.588;13.370;2023-02-15T02:14:19;27.77;;;17.27;;
9771;SDS011;4925;52.588;13.370;2023-02-15T02:31:49;28.80;;;16.70;;
9771;SDS011;4925;52.588;13.370;2023-02-15T02:34:22;26.50;;;17.43;;
9771;SDS011;4925;52.588;13.370;2023-02-15T02:37:15;25.27;;;17.00;;
9771;SDS011;4925;52.588;13.370;2023-02-15T02:42:35;31.73;;;17.97;;
9771;SDS011;4925;52.588;13.370;2023-02-15T02:45:06;27.03;;;16.63;;
9771;SDS011;4925;52.588;13.370;2023-02-15T02:50:11;27.13;;;17.27;;
9771;SDS011;4925;52.588;13.370;2023-02-15T02:52:41;26.73;;;17.47;;
9771;SDS011;4925;52.588;13.370;2023-02-15T02:57:55;27.57;;;17.17;;
9771;SDS011;4925;52.588;13.370;2023-02-15T03:00:26;27.23;;;17.60;;
9771;SDS011;4925;52.588;13.370;2023-02-15T03:02:56;30.20;;;18.30;;
9771;SDS011;4925;52.588;13.370;2023-02-15T03:05:30;27.50;;;18.27;;
9771;SDS011;4925;52.588;13.370;2023-02-15T03:07:58;34.53;;;19.30;;
9771;SDS011;4925;52.588;13.370;2023-02-15T03:10:31;32.33;;;18.27;;
9771;SDS011;4925;52.588;13.370;2023-02-15T03:12:59;31.93;;;19.13;;
9771;SDS011;4925;52.588;13.370;2023-02-15T03:15:26;30.00;;;18.97;;
9771;SDS011;4925;52.588;13.370;2023-02-15T03:18:16;29.83;;;19.63;;
9771;SDS011;4925;52.588;13.370;2023-02-15T03:20:45;32.57;;;19.53;;
9771;SDS011;4925;52.588;13.370;2023-02-15T03:23:20;34.20;;;19.70;;
9771;SDS011;4925;52.588;13.370;2023-02-15T03:25:52;32.23;;;19.13;;
9771;SDS011;4925;52.588;13.370;2023-02-15T03:28:25;31.70;;;19.57;;
9771;SDS011;4925;52.588;13.370;2023-02-15T03:31:01;36.83;;;21.20;;
9771;SDS011;4925;52.588;13.370;2023-02-15T03:33:30;31.10;;;18.77;;
9771;SDS011;4925;52.588;13.370;2023-02-15T03:41:40;33.37;;;19.67;;
9771;SDS011;4925;52.588;13.370;2023-02-15T03:44:28;34.90;;;19.20;;
9771;SDS011;4925;52.588;13.370;2023-02-15T03:47:04;38.93;;;22.93;;
9771;SDS011;4925;52.588;13.370;2023-02-15T03:49:43;35.63;;;21.33;;
9771;SDS011;4925;52.588;13.370;2023-02-15T03:52:18;37.97;;;22.43;;
9771;SDS011;4925;52.588;13.370;2023-02-15T03:54:47;38.07;;;20.93;;
9771;SDS011;4925;52.588;13.370;2023-02-15T04:00:21;39.23;;;22.83;;
9771;SDS011;4925;52.588;13.370;2023-02-15T04:05:36;36.03;;;21.30;;
9771;SDS011;4925;52.588;13.370;2023-02-15T04:08:02;40.30;;;22.83;;
9771;SDS011;4925;52.588;13.370;2023-02-15T04:10:28;38.53;;;22.17;;
9771;SDS011;4925;52.588;13.370;2023-02-15T04:13:12;37.47;;;21.30;;
9771;SDS011;4925;52.588;13.370;2023-02-15T04:15:38;36.20;;;22.17;;
9771;SDS011;4925;52.588;13.370;2023-02-15T04:18:22;35.20;;;20.93;;
9771;SDS011;4925;52.588;13.370;2023-02-15T04:21:06;37.97;;;20.57;;
9771;SDS011;4925;52.588;13.370;2023-02-15T04:23:50;35.43;;;21.07;;
9771;SDS011;4925;52.588;13.370;2023-02-15T04:26:34;39.83;;;22.00;;
9771;SDS011;4925;52.588;13.370;2023-02-15T04:29:00;36.67;;;21.37;;
9771;SDS011;4925;52.588;13.370;2023-02-15T04:31:26;36.13;;;20.83;;
9771;SDS011;4925;52.588;13.370;2023-02-15T04:33:51;38.57;;;21.80;;
9771;SDS011;4925;52.588;13.370;2023-02-15T04:36:17;45.43;;;24.23;;
9771;SDS011;4925;52.588;13.370;2023-02-15T04:38:43;43.40;;;24.50;;
9771;SDS011;4925;52.588;13.370;2023-02-15T04:41:08;38.77;;;23.27;;
9771;SDS011;4925;52.588;13.370;2023-02-15T04:43:36;38.53;;;22.40;;
9771;SDS011;4925;52.588;13.370;2023-02-15T04:46:01;38.23;;;22.63;;
9771;SDS011;4925;52.588;13.370;2023-02-15T04:48:27;38.10;;;23.00;;
9771;SDS011;4925;52.588;13.370;2023-02-15T04:50:53;43.43;;;23.70;;
9771;SDS011;4925;52.588;13.370;2023-02-15T04:53:19;43.63;;;25.00;;
9771;SDS011;4925;52.588;13.370;2023-02-15T04:55:44;40.93;;;23.70;;
9771;SDS011;4925;52.588;13.370;2023-02-15T04:58:10;50.90;;;25.53;;
9771;SDS011;4925;52.588;13.370;2023-02-15T05:00:36;42.73;;;24.10;;
9771;SDS011;4925;52.588;13.370;2023-02-15T05:03:01;39.80;;;24.23;;
9771;SDS011;4925;52.588;13.370;2023-02-15T05:05:27;43.90;;;24.20;;
9771;SDS011;4925;52.588;13.370;2023-02-15T05:07:53;45.60;;;25.00;;
9771;SDS011;4925;52.588;13.370;2023-02-15T05:10:19;47.40;;;24.63;;
9771;SDS011;4925;52.588;13.370;2023-02-15T05:12:45;43.07;;;23.03;;
9771;SDS011;4925;52.588;13.370;2023-02-15T05:15:11;44.87;;;23.57;;
9771;SDS011;4925;52.588;13.370;2023-02-15T05:17:37;46.00;;;23.43;;
9771;SDS011;4925;52.588;13.370;2023-02-15T05:20:03;48.27;;;26.60;;
9771;SDS011;4925;52.588;13.370;2023-02-15T05:22:29;50.53;;;25.57;;
9771;SDS011;4925;52.588;13.370;2023-02-15T05:24:55;46.03;;;25.70;;
9771;SDS011;4925;52.588;13.370;2023-02-15T05:27:39;42.80;;;23.90;;
9771;SDS011;4925;52.588;13.370;2023-02-15T05:30:23;45.20;;;24.50;;
9771;SDS011;4925;52.588;13.370;2023-02-15T05:32:49;44.47;;;24.47;;
9771;SDS011;4925;52.588;13.370;2023-02-15T05:35:15;48.60;;;26.77;;
9771;SDS011;4925;52.588;13.370;2023-02-15T05:37:41;44.07;;;24.77;;
9771;SDS011;4925;52.588;13.370;2023-02-15T05:40:07;42.47;;;23.63;;
9771;SDS011;4925;52.588;13.370;2023-02-15T05:42:33;48.97;;;24.93;;
9771;SDS011;4925;52.588;13.370;2023-02-15T05:44:59;48.93;;;24.90;;
9771;SDS011;4925;52.588;13.370;2023-02-15T05:47:25;51.20;;;26.17;;
9771;SDS011;4925;52.588;13.370;2023-02-15T05:49:50;48.50;;;25.33;;
9771;SDS011;4925;52.588;13.370;2023-02-15T05:52:16;45.83;;;24.03;;
9771;SDS011;4925;52.588;13.370;2023-02-15T05:54:42;48.60;;;26.40;;
9771;SDS011;4925;52.588;13.370;2023-02-15T05:57:08;44.20;;;24.43;;
9771;SDS011;4925;52.588;13.370;2023-02-15T05:59:33;44.77;;;24.77;;
9771;SDS011;4925;52.588;13.370;2023-02-15T06:01:59;46.53;;;24.33;;
9771;SDS011;4925;52.588;13.370;2023-02-15T06:04:25;48.13;;;25.13;;
9771;SDS011;4925;52.588;13.370;2023-02-15T06:06:50;45.93;;;25.87;;
9771;SDS011;4925;52.588;13.370;2023-02-15T06:09:16;47.40;;;26.10;;
9771;SDS011;4925;52.588;13.370;2023-02-15T06:11:43;50.40;;;25.83;;
9771;SDS011;4925;52.588;13.370;2023-02-15T06:14:10;42.30;;;24.47;;
9771;SDS011;4925;52.588;13.370;2023-02-15T06:16:36;43.80;;;24.23;;
9771;SDS011;4925;52.588;13.370;2023-02-15T06:19:02;44.07;;;24.30;;
9771;SDS011;4925;52.588;13.370;2023-02-15T06:21:28;43.60;;;24.07;;
9771;SDS011;4925;52.588;13.370;2023-02-15T06:23:55;50.53;;;26.83;;
9771;SDS011;4925;52.588;13.370;2023-02-15T06:26:21;52.90;;;27.07;;
9771;SDS011;4925;52.588;13.370;2023-02-15T06:28:47;44.63;;;24.57;;
9771;SDS011;4925;52.588;13.370;2023-02-15T06:31:13;44.97;;;24.53;;
9771;SDS011;4925;52.588;13.370;2023-02-15T06:33:38;45.27;;;25.87;;
9771;SDS011;4925;52.588;13.370;2023-02-15T06:36:04;45.73;;;25.37;;
9771;SDS011;4925;52.588;13.370;2023-02-15T06:38:30;52.13;;;26.67;;
9771;SDS011;4925;52.588;13.370;2023-02-15T06:40:56;53.87;;;27.03;;
9771;SDS011;4925;52.588;13.370;2023-02-15T06:43:22;53.70;;;26.23;;
9771;SDS011;4925;52.588;13.370;2023-02-15T06:45:47;53.30;;;25.40;;
9771;SDS011;4925;52.588;13.370;2023-02-15T06:48:13;57.43;;;27.67;;
9771;SDS011;4925;52.588;13.370;2023-02-15T06:50:39;74.33;;;28.10;;
9771;SDS011;4925;52.588;13.370;2023-02-15T06:53:04;91.27;;;29.80;;
9771;SDS011;4925;52.588;13.370;2023-02-15T06:55:30;61.17;;;28.87;;
9771;SDS011;4925;52.588;13.370;2023-02-15T06:57:56;83.30;;;29.70;;
9771;SDS011;4925;52.588;13.370;2023-02-15T07:00:22;63.93;;;30.60;;
9771;SDS011;4925;52.588;13.370;2023-02-15T07:02:52;57.60;;;27.60;;
9771;SDS011;4925;52.588;13.370;2023-02-15T07:05:20;60.10;;;28.37;;
9771;SDS011;4925;52.588;13.370;2023-02-15T07:07:47;61.97;;;28.33;;
9771;SDS011;4925;52.588;13.370;2023-02-15T07:10:12;65.47;;;28.10;;
9771;SDS011;4925;52.588;13.370;2023-02-15T07:12:38;71.67;;;28.80;;
9771;SDS011;4925;52.588;13.370;2023-02-15T07:15:14;121.03;;;29.77;;
9771;SDS011;4925;52.588;13.370;2023-02-15T07:17:41;79.77;;;28.93;;
9771;SDS011;4925;52.588;13.370;2023-02-15T07:20:11;58.07;;;26.97;;
9771;SDS011;4925;52.588;13.370;2023-02-15T07:22:39;61.60;;;29.57;;
9771;SDS011;4925;52.588;13.370;2023-02-15T07:25:06;63.77;;;30.60;;
9771;SDS011;4925;52.588;13.370;2023-02-15T07:27:33;62.37;;;31.03;;
9771;SDS011;4925;52.588;13.370;2023-02-15T07:29:59;64.40;;;27.93;;
9771;SDS011;4925;52.588;13.370;2023-02-15T07:32:29;54.67;;;25.50;;
9771;SDS011;4925;52.588;13.370;2023-02-15T07:34:55;77.53;;;26.20;;
9771;SDS011;4925;52.588;13.370;2023-02-15T07:37:21;75.63;;;26.77;;
9771;SDS011;4925;52.588;13.370;2023-02-15T07:39:47;67.93;;;28.40;;
9771;SDS011;4925;52.588;13.370;2023-02-15T07:42:12;73.70;;;30.37;;
9771;SDS011;4925;52.588;13.370;2023-02-15T07:44:38;68.40;;;29.47;;
9771;SDS011;4925;52.588;13.370;2023-02-15T07:47:04;62.63;;;29.63;;
9771;SDS011;4925;52.588;13.370;2023-02-15T07:49:30;69.37;;;29.87;;
9771;SDS011;4925;52.588;13.370;2023-02-15T07:51:55;86.30;;;30.50;;
9771;SDS011;4925;52.588;13.370;2023-02-15T07:54:21;65.50;;;30.10;;
9771;SDS011;4925;52.588;13.370;2023-02-15T07:56:46;87.67;;;30.17;;
9771;SDS011;4925;52.588;13.370;2023-02-15T07:59:12;81.70;;;31.33;;
9771;SDS011;4925;52.588;13.370;2023-02-15T08:01:38;74.70;;;31.03;;
9771;SDS011;4925;52.588;13.370;2023-02-15T08:04:04;68.40;;;30.10;;
9771;SDS011;4925;52.588;13.370;2023-02-15T08:06:32;68.40;;;30.63;;
9771;SDS011;4925;52.588;13.370;2023-02-15T08:09:00;76.20;;;31.93;;
9771;SDS011;4925;52.588;13.370;2023-02-15T08:11:28;72.13;;;31.20;;
9771;SDS011;4925;52.588;13.370;2023-02-15T08:14:02;84.00;;;32.07;;
9771;SDS011;4925;52.588;13.370;2023-02-15T08:19:14;70.07;;;30.67;;
9771;SDS011;4925;52.588;13.370;2023-02-15T08:21:43;69.70;;;29.90;;
9771;SDS011;4925;52.588;13.370;2023-02-15T08:24:11;70.60;;;29.97;;
9771;SDS011;4925;52.588;13.370;2023-02-15T08:26:38;71.47;;;31.17;;
9771;SDS011;4925;52.588;13.370;2023-02-15T08:29:05;71.27;;;31.03;;
9771;SDS011;4925;52.588;13.370;2023-02-15T08:31:32;68.73;;;31.87;;
9771;SDS011;4925;52.588;13.370;2023-02-15T08:33:59;78.73;;;33.10;;
9771;SDS011;4925;52.588;13.370;2023-02-15T08:36:28;70.23;;;32.87;;
9771;SDS011;4925;52.588;13.370;2023-02-15T08:38:59;66.27;;;32.13;;
9771;SDS011;4925;52.588;13.370;2023-02-15T08:41:27;66.97;;;30.63;;
9771;SDS011;4925;52.588;13.370;2023-02-15T08:43:57;68.23;;;31.00;;
9771;SDS011;4925;52.588;13.370;2023-02-15T08:46:27;67.67;;;32.73;;
9771;SDS011;4925;52.588;13.370;2023-02-15T08:48:54;67.80;;;30.80;;
9771;SDS011;4925;52.588;13.370;2023-02-15T08:51:21;75.07;;;31.90;;
9771;SDS011;4925;52.588;13.370;2023-02-15T08:54:06;77.03;;;32.50;;
9771;SDS011;4925;52.588;13.370;2023-02-15T08:56:35;69.00;;;30.47;;
9771;SDS011;4925;52.588;13.370;2023-02-15T08:59:02;66.77;;;31.43;;
9771;SDS011;4925;52.588;13.370;2023-02-15T09:01:29;68.80;;;31.70;;
9771;SDS011;4925;52.588;13.370;2023-02-15T09:03:58;68.67;;;31.10;;
9771;SDS011;4925;52.588;13.370;2023-02-15T09:06:25;65.50;;;29.97;;
9771;SDS011;4925;52.588;13.370;2023-02-15T09:08:52;62.47;;;29.87;;
9771;SDS011;4925;52.588;13.370;2023-02-15T09:11:22;56.67;;;26.67;;
9771;SDS011;4925;52.588;13.370;2023-02-15T09:13:59;54.03;;;27.20;;
9771;SDS011;4925;52.588;13.370;2023-02-15T09:16:45;53.17;;;27.30;;
9771;SDS011;4925;52.588;13.370;2023-02-15T09:19:13;57.00;;;27.43;;
9771;SDS011;4925;52.588;13.370;2023-02-15T09:21:40;55.53;;;27.40;;
9771;SDS011;4925;52.588;13.370;2023-02-15T09:24:08;52.23;;;27.13;;
9771;SDS011;4925;52.588;13.370;2023-02-15T09:26:35;53.40;;;27.00;;
9771;SDS011;4925;52.588;13.370;2023-02-15T09:29:05;49.30;;;25.37;;
9771;SDS011;4925;52.588;13.370;2023-02-15T09:31:41;43.93;;;25.00;;
9771;SDS011;4925;52.588;13.370;2023-02-15T09:34:09;50.10;;;25.77;;
9771;SDS011;4925;52.588;13.370;2023-02-15T09:36:36;44.60;;;24.67;;
9771;SDS011;4925;52.588;13.370;2023-02-15T09:52:44;40.23;;;22.17;;
9771;SDS011;4925;52.588;13.370;2023-02-15T10:15:19;30.20;;;19.57;;
9771;SDS011;4925;52.588;13.370;2023-02-15T10:20:56;33.33;;;18.60;;
9771;SDS011;4925;52.588;13.370;2023-02-15T10:23:34;33.33;;;19.23;;
9771;SDS011;4925;52.588;13.370;2023-02-15T10:26:20;32.13;;;19.53;;
9771;SDS011;4925;52.588;13.370;2023-02-15T10:29:07;32.30;;;18.40;;
9771;SDS011;4925;52.588;13.370;2023-02-15T10:32:42;31.70;;;20.17;;
9771;SDS011;4925;52.588;13.370;2023-02-15T10:40:36;35.30;;;22.00;;
9771;SDS011;4925;52.588;13.370;2023-02-15T10:43:35;38.03;;;21.23;;
9771;SDS011;4925;52.588;13.370;2023-02-15T10:51:20;33.07;;;20.47;;
9771;SDS011;4925;52.588;13.370;2023-02-15T11:12:56;34.00;;;20.07;;
9771;SDS011;4925;52.588;13.370;2023-02-15T11:15:30;33.00;;;20.57;;
9771;SDS011;4925;52.588;13.370;2023-02-15T11:18:03;34.20;;;19.20;;
9771;SDS011;4925;52.588;13.370;2023-02-15T11:20:33;37.17;;;20.67;;
9771;SDS011;4925;52.588;13.370;2023-02-15T11:23:07;30.67;;;18.17;;
9771;SDS011;4925;52.588;13.370;2023-02-15T11:25:41;32.57;;;18.90;;
9771;SDS011;4925;52.588;13.370;2023-02-15T11:28:13;37.73;;;20.10;;
9771;SDS011;4925;52.588;13.370;2023-02-15T11:30:49;32.00;;;18.57;;
9771;SDS011;4925;52.588;13.370;2023-02-15T11:33:24;33.00;;;19.77;;
9771;SDS011;4925;52.588;13.370;2023-02-15T11:36:00;34.20;;;19.27;;
9771;SDS011;4925;52.588;13.370;2023-02-15T11:38:33;31.40;;;18.60;;
9771;SDS011;4925;52.588;13.370;2023-02-15T11:46:22;29.63;;;18.43;;
9771;SDS011;4925;52.588;13.370;2023-02-15T11:48:47;29.07;;;18.63;;
9771;SDS011;4925;52.588;13.370;2023-02-15T11:51:14;28.57;;;17.93;;
9771;SDS011;4925;52.588;13.370;2023-02-15T11:53:43;30.77;;;19.30;;
9771;SDS011;4925;52.588;13.370;2023-02-15T11:56:17;28.13;;;18.87;;
9771;SDS011;4925;52.588;13.370;2023-02-15T11:58:59;27.97;;;18.60;;
9771;SDS011;4925;52.588;13.370;2023-02-15T12:01:30;36.93;;;19.77;;
9771;SDS011;4925;52.588;13.370;2023-02-15T12:03:58;27.27;;;18.47;;
9771;SDS011;4925;52.588;13.370;2023-02-15T12:06:30;33.80;;;19.47;;
9771;SDS011;4925;52.588;13.370;2023-02-15T12:09:06;28.87;;;19.50;;
9771;SDS011;4925;52.588;13.370;2023-02-15T12:11:38;27.20;;;18.20;;
9771;SDS011;4925;52.588;13.370;2023-02-15T12:14:06;27.03;;;18.33;;
9771;SDS011;4925;52.588;13.370;2023-02-15T12:16:40;24.03;;;17.93;;
9771;SDS011;4925;52.588;13.370;2023-02-15T12:19:21;27.63;;;17.90;;
9771;SDS011;4925;52.588;13.370;2023-02-15T12:21:52;28.90;;;18.90;;
9771;SDS011;4925;52.588;13.370;2023-02-15T12:26:55;25.03;;;17.70;;
9771;SDS011;4925;52.588;13.370;2023-02-15T12:29:25;30.50;;;18.77;;
9771;SDS011;4925;52.588;13.370;2023-02-15T12:31:54;24.53;;;17.30;;
9771;SDS011;4925;52.588;13.370;2023-02-15T12:34:30;24.57;;;16.87;;
9771;SDS011;4925;52.588;13.370;2023-02-15T12:37:00;25.30;;;16.93;;
9771;SDS011;4925;52.588;13.370;2023-02-15T12:39:33;26.73;;;18.07;;
9771;SDS011;4925;52.588;13.370;2023-02-15T12:42:00;31.40;;;21.03;;
9771;SDS011;4925;52.588;13.370;2023-02-15T12:44:39;30.07;;;18.43;;
9771;SDS011;4925;52.588;13.370;2023-02-15T12:47:40;23.40;;;17.67;;
9771;SDS011;4925;52.588;13.370;2023-02-15T12:50:21;26.80;;;18.57;;
9771;SDS011;4925;52.588;13.370;2023-02-15T12:52:49;29.87;;;17.93;;
9771;SDS011;4925;52.588;13.370;2023-02-15T12:57:46;29.53;;;19.70;;
9771;SDS011;4925;52.588;13.370;2023-02-15T13:02:54;24.40;;;17.97;;
9771;SDS011;4925;52.588;13.370;2023-02-15T13:05:23;24.30;;;17.50;;
9771;SDS011;4925;52.588;13.370;2023-02-15T13:07:59;29.77;;;18.20;;
9771;SDS011;4925;52.588;13.370;2023-02-15T13:11:19;25.53;;;17.73;;
9771;SDS011;4925;52.588;13.370;2023-02-15T13:13:36;25.87;;;17.87;;
9771;SDS011;4925;52.588;13.370;2023-02-15T13:16:12;26.00;;;18.20;;
9771;SDS011;4925;52.588;13.370;2023-02-15T13:18:43;30.63;;;17.10;;
9771;SDS011;4925;52.588;13.370;2023-02-15T13:21:18;25.43;;;17.23;;
9771;SDS011;4925;52.588;13.370;2023-02-15T13:24:04;25.33;;;17.23;;
9771;SDS011;4925;52.588;13.370;2023-02-15T13:26:32;26.23;;;17.40;;
9771;SDS011;4925;52.588;13.370;2023-02-15T13:29:11;27.37;;;18.20;;
9771;SDS011;4925;52.588;13.370;2023-02-15T13:31:48;26.23;;;16.90;;
9771;SDS011;4925;52.588;13.370;2023-02-15T13:42:34;27.07;;;17.77;;
9771;SDS011;4925;52.588;13.370;2023-02-15T13:45:21;31.97;;;17.73;;
9771;SDS011;4925;52.588;13.370;2023-02-15T13:50:33;23.23;;;17.03;;
9771;SDS011;4925;52.588;13.370;2023-02-15T13:53:27;24.90;;;18.33;;
9771;SDS011;4925;52.588;13.370;2023-02-15T13:55:57;27.87;;;18.63;;
9771;SDS011;4925;52.588;13.370;2023-02-15T14:03:44;24.70;;;17.23;;
9771;SDS011;4925;52.588;13.370;2023-02-15T14:06:28;24.23;;;17.17;;
9771;SDS011;4925;52.588;13.370;2023-02-15T14:19:53;21.23;;;14.50;;
9771;SDS011;4925;52.588;13.370;2023-02-15T14:22:39;22.10;;;15.20;;
9771;SDS011;4925;52.588;13.370;2023-02-15T14:25:20;39.47;;;27.93;;
9771;SDS011;4925;52.588;13.370;2023-02-15T14:30:37;21.67;;;16.00;;
9771;SDS011;4925;52.588;13.370;2023-02-15T14:33:05;19.20;;;14.90;;
9771;SDS011;4925;52.588;13.370;2023-02-15T14:35:33;19.63;;;14.73;;
9771;SDS011;4925;52.588;13.370;2023-02-15T14:38:02;21.40;;;15.80;;
9771;SDS011;4925;52.588;13.370;2023-02-15T14:40:34;23.53;;;15.37;;
9771;SDS011;4925;52.588;13.370;2023-02-15T14:56:42;28.23;;;15.97;;
9771;SDS011;4925;52.588;13.370;2023-02-15T15:01:51;20.10;;;15.13;;
9771;SDS011;4925;52.588;13.370;2023-02-15T15:09:43;23.07;;;15.87;;
9771;SDS011;4925;52.588;13.370;2023-02-15T15:14:54;21.70;;;16.17;;
9771;SDS011;4925;52.588;13.370;2023-02-15T15:22:38;25.03;;;15.73;;
9771;SDS011;4925;52.588;13.370;2023-02-15T15:27:55;20.93;;;14.43;;
9771;SDS011;4925;52.588;13.370;2023-02-15T15:32:53;20.77;;;15.07;;
9771;SDS011;4925;52.588;13.370;2023-02-15T15:41:03;26.03;;;16.33;;
9771;SDS011;4925;52.588;13.370;2023-02-15T15:49:33;19.60;;;15.60;;
9771;SDS011;4925;52.588;13.370;2023-02-15T15:52:01;25.80;;;16.37;;
9771;SDS011;4925;52.588;13.370;2023-02-15T15:54:33;19.07;;;14.87;;
9771;SDS011;4925;52.588;13.370;2023-02-15T15:57:03;24.40;;;15.93;;
9771;SDS011;4925;52.588;13.370;2023-02-15T15:59:32;23.03;;;16.00;;
9771;SDS011;4925;52.588;13.370;2023-02-15T16:02:13;21.53;;;16.13;;
9771;SDS011;4925;52.588;13.370;2023-02-15T16:04:41;23.73;;;16.40;;
9771;SDS011;4925;52.588;13.370;2023-02-15T16:09:58;31.30;;;17.90;;
9771;SDS011;4925;52.588;13.370;2023-02-15T16:12:27;26.70;;;18.20;;
9771;SDS011;4925;52.588;13.370;2023-02-15T16:14:55;30.07;;;17.77;;
9771;SDS011;4925;52.588;13.370;2023-02-15T16:17:25;29.13;;;17.97;;
9771;SDS011;4925;52.588;13.370;2023-02-15T16:19:58;30.83;;;18.50;;
9771;SDS011;4925;52.588;13.370;2023-02-15T16:28:58;30.63;;;19.40;;
9771;SDS011;4925;52.588;13.370;2023-02-15T16:31:24;28.87;;;18.30;;
9771;SDS011;4925;52.588;13.370;2023-02-15T16:33:52;33.10;;;19.27;;
9771;SDS011;4925;52.588;13.370;2023-02-15T16:36:23;34.40;;;19.10;;
9771;SDS011;4925;52.588;13.370;2023-02-15T16:41:27;30.87;;;19.40;;
9771;SDS011;4925;52.588;13.370;2023-02-15T16:43:54;30.50;;;19.57;;
9771;SDS011;4925;52.588;13.370;2023-02-15T16:46:30;32.57;;;20.27;;
9771;SDS011;4925;52.588;13.370;2023-02-15T16:48:59;38.50;;;20.10;;
9771;SDS011;4925;52.588;13.370;2023-02-15T16:51:28;28.27;;;18.27;;
9771;SDS011;4925;52.588;13.370;2023-02-15T16:53:56;25.47;;;18.17;;
9771;SDS011;4925;52.588;13.370;2023-02-15T16:56:29;29.40;;;18.13;;
9771;SDS011;4925;52.588;13.370;2023-02-15T16:58:56;28.73;;;17.37;;
9771;SDS011;4925;52.588;13.370;2023-02-15T17:01:28;32.50;;;18.70;;
9771;SDS011;4925;52.588;13.370;2023-02-15T17:04:13;26.73;;;17.33;;
9771;SDS011;4925;52.588;13.370;2023-02-15T17:07:03;25.83;;;16.97;;
9771;SDS011;4925;52.588;13.370;2023-02-15T17:09:31;30.50;;;16.97;;
9771;SDS011;4925;52.588;13.370;2023-02-15T17:11:57;27.60;;;17.70;;
9771;SDS011;4925;52.588;13.370;2023-02-15T17:14:30;21.37;;;16.40;;
9771;SDS011;4925;52.588;13.370;2023-02-15T17:17:06;26.23;;;17.87;;
9771;SDS011;4925;52.588;13.370;2023-02-15T17:19:43;27.53;;;17.33;;
9771;SDS011;4925;52.588;13.370;2023-02-15T17:22:21;40.37;;;19.03;;
9771;SDS011;4925;52.588;13.370;2023-02-15T17:24:50;36.07;;;19.30;;
9771;SDS011;4925;52.588;13.370;2023-02-15T17:27:28;35.93;;;19.07;;
9771;SDS011;4925;52.588;13.370;2023-02-15T17:29:59;38.70;;;23.10;;
9771;SDS011;4925;52.588;13.370;2023-02-15T17:32:27;31.83;;;16.93;;
9771;SDS011;4925;52.588;13.370;2023-02-15T17:37:46;32.53;;;17.97;;
9771;SDS011;4925;52.588;13.370;2023-02-15T17:42:47;26.33;;;17.87;;
9771;SDS011;4925;52.588;13.370;2023-02-15T17:45:13;31.70;;;18.13;;
9771;SDS011;4925;52.588;13.370;2023-02-15T17:47:39;33.50;;;20.13;;
9771;SDS011;4925;52.588;13.370;2023-02-15T17:50:06;31.50;;;19.00;;
9771;SDS011;4925;52.588;13.370;2023-02-15T17:52:33;35.80;;;18.10;;
9771;SDS011;4925;52.588;13.370;2023-02-15T17:55:01;42.23;;;19.07;;
9771;SDS011;4925;52.588;13.370;2023-02-15T17:57:56;39.90;;;18.27;;
9771;SDS011;4925;52.588;13.370;2023-02-15T18:00:21;28.10;;;18.23;;
9771;SDS011;4925;52.588;13.370;2023-02-15T18:03:08;34.90;;;20.13;;
9771;SDS011;4925;52.588;13.370;2023-02-15T18:05:54;37.37;;;21.10;;
9771;SDS011;4925;52.588;13.370;2023-02-15T18:08:39;34.07;;;19.23;;
9771;SDS011;4925;52.588;13.370;2023-02-15T18:11:23;28.90;;;19.70;;
9771;SDS011;4925;52.588;13.370;2023-02-15T18:14:07;30.77;;;19.20;;
9771;SDS011;4925;52.588;13.370;2023-02-15T18:16:35;34.83;;;19.17;;
9771;SDS011;4925;52.588;13.370;2023-02-15T18:19:04;30.17;;;18.33;;
9771;SDS011;4925;52.588;13.370;2023-02-15T18:21:33;30.33;;;18.93;;
9771;SDS011;4925;52.588;13.370;2023-02-15T18:23:59;30.27;;;19.47;;